sensor_id;sensor_type;location;lat;lon;timestamp;P1;durP1;ratioP1;P2;durP2;ratioP2
13309;SDS011;6723;48.256;16.402;2023-01-15T00:00:13;11.97;;;9.07;;
13309;SDS011;6723;48.256;16.402;2023-01-15T00:02:39;13.10;;;9.40;;
13309;SDS011;6723;48.256;16.402;2023-01-15T00:05:05;11.20;;;8.70;;
13309;SDS011;6723;48.256;16.402;2023-01-15T00:07:32;11.63;;;9.00;;
13309;SDS011;6723;48.256;16.402;2023-01-15T00:09:57;11.93;;;8.30;;
13309;SDS011;6723;48.256;16.402;2023-01-15T00:12:23;13.33;;;9.23;;
13309;SDS011;6723;48.256;16.402;2023-01-15T00:14:49;11.03;;;8.60;;
13309;SDS011;6723;48.256;16.402;2023-01-15T00:17:15;12.23;;;9.13;;
13309;SDS011;6723;48.256;16.402;2023-01-15T00:19:41;11.60;;;8.70;;
13309;SDS011;6723;48.256;16.402;2023-01-15T00:22:06;13.43;;;9.37;;
13309;SDS011;6723;48.256;16.402;2023-01-15T00:24:32;11.13;;;9.00;;
13309;SDS011;6723;48.256;16.402;2023-01-15T00:27:16;11.50;;;9.20;;
13309;SDS011;6723;48.256;16.402;2023-01-15T00:30:00;12.83;;;9.03;;
13309;SDS011;6723;48.256;16.402;2023-01-15T00:32:27;12.13;;;8.90;;
13309;SDS011;6723;48.256;16.402;2023-01-15T00:34:54;10.43;;;8.50;;
13309;SDS011;6723;48.256;16.402;2023-01-15T00:37:20;11.87;;;9.17;;
13309;SDS011;6723;48.256;16.402;2023-01-15T00:39:46;12.40;;;8.67;;
13309;SDS011;6723;48.256;16.402;2023-01-15T00:42:12;12.30;;;9.80;;
13309;SDS011;6723;48.256;16.402;2023-01-15T00:44:37;13.60;;;9.40;;
13309;SDS011;6723;48.256;16.402;2023-01-15T00:47:03;11.20;;;8.73;;
13309;SDS011;6723;48.256;16.402;2023-01-15T00:49:30;12.37;;;8.83;;
13309;SDS011;6723;48.256;16.402;2023-01-15T00:51:56;12.83;;;8.83;;
13309;SDS011;6723;48.256;16.402;2023-01-15T00:54:22;11.43;;;9.00;;
13309;SDS011;6723;48.256;16.402;2023-01-15T00:56:47;11.60;;;9.07;;
13309;SDS011;6723;48.256;16.402;2023-01-15T00:59:13;12.23;;;9.23;;
13309;SDS011;6723;48.256;16.402;2023-01-15T01:01:39;11.30;;;8.77;;
13309;SDS011;6723;48.256;16.402;2023-01-15T01:04:05;12.70;;;9.20;;
13309;SDS011;6723;48.256;16.402;2023-01-15T01:06:31;11.90;;;9.43;;
13309;SDS011;6723;48.256;16.402;2023-01-15T01:08:57;13.23;;;9.47;;
13309;SDS011;6723;48.256;16.402;2023-01-15T01:11:23;12.50;;;9.50;;
13309;SDS011;6723;48.256;16.402;2023-01-15T01:13:51;10.93;;;8.93;;
13309;SDS011;6723;48.256;16.402;2023-01-15T01:18:48;12.13;;;8.57;;
13309;SDS011;6723;48.256;16.402;2023-01-15T01:21:15;11.97;;;9.00;;
13309;SDS011;6723;48.256;16.402;2023-01-15T01:23:41;10.77;;;8.47;;
13309;SDS011;6723;48.256;16.402;2023-01-15T01:26:07;13.33;;;8.40;;
13309;SDS011;6723;48.256;16.402;2023-01-15T01:28:34;11.30;;;8.53;;
13309;SDS011;6723;48.256;16.402;2023-01-15T01:31:03;12.23;;;8.67;;
13309;SDS011;6723;48.256;16.402;2023-01-15T01:33:29;11.27;;;9.00;;
13309;SDS011;6723;48.256;16.402;2023-01-15T01:35:55;10.80;;;8.17;;
13309;SDS011;6723;48.256;16.402;2023-01-15T01:38:21;11.33;;;8.47;;
13309;SDS011;6723;48.256;16.402;2023-01-15T01:40:46;13.03;;;8.80;;
13309;SDS011;6723;48.256;16.402;2023-01-15T01:46:23;13.60;;;8.67;;
13309;SDS011;6723;48.256;16.402;2023-01-15T01:48:51;10.93;;;8.10;;
13309;SDS011;6723;48.256;16.402;2023-01-15T01:51:23;10.47;;;8.23;;
13309;SDS011;6723;48.256;16.402;2023-01-15T01:53:51;11.50;;;8.00;;
13309;SDS011;6723;48.256;16.402;2023-01-15T01:56:17;9.73;;;7.87;;
13309;SDS011;6723;48.256;16.402;2023-01-15T01:58:44;11.80;;;7.97;;
13309;SDS011;6723;48.256;16.402;2023-01-15T02:01:14;10.97;;;8.47;;
13309;SDS011;6723;48.256;16.402;2023-01-15T02:03:41;10.53;;;8.17;;
13309;SDS011;6723;48.256;16.402;2023-01-15T02:06:07;12.50;;;8.97;;
13309;SDS011;6723;48.256;16.402;2023-01-15T02:08:34;10.23;;;8.37;;
13309;SDS011;6723;48.256;16.402;2023-01-15T02:11:03;11.40;;;8.23;;
13309;SDS011;6723;48.256;16.402;2023-01-15T02:14:14;10.30;;;7.80;;
13309;SDS011;6723;48.256;16.402;2023-01-15T02:16:27;11.87;;;7.63;;
13309;SDS011;6723;48.256;16.402;2023-01-15T02:28:32;9.60;;;6.87;;
13309;SDS011;6723;48.256;16.402;2023-01-15T02:31:09;10.40;;;7.33;;
13309;SDS011;6723;48.256;16.402;2023-01-15T02:33:43;8.90;;;6.90;;
13309;SDS011;6723;48.256;16.402;2023-01-15T02:36:13;8.57;;;7.10;;
13309;SDS011;6723;48.256;16.402;2023-01-15T02:38:43;8.40;;;7.00;;
13309;SDS011;6723;48.256;16.402;2023-01-15T02:41:13;9.50;;;6.80;;
13309;SDS011;6723;48.256;16.402;2023-01-15T02:43:45;8.50;;;7.00;;
13309;SDS011;6723;48.256;16.402;2023-01-15T02:46:15;9.13;;;6.70;;
13309;SDS011;6723;48.256;16.402;2023-01-15T02:48:46;9.47;;;7.13;;
13309;SDS011;6723;48.256;16.402;2023-01-15T02:51:18;8.87;;;6.43;;
13309;SDS011;6723;48.256;16.402;2023-01-15T02:53:50;9.53;;;7.10;;
13309;SDS011;6723;48.256;16.402;2023-01-15T02:56:23;9.87;;;6.23;;
13309;SDS011;6723;48.256;16.402;2023-01-15T02:58:55;8.33;;;6.60;;
13309;SDS011;6723;48.256;16.402;2023-01-15T03:01:29;8.17;;;6.00;;
13309;SDS011;6723;48.256;16.402;2023-01-15T03:09:16;6.77;;;4.87;;
13309;SDS011;6723;48.256;16.402;2023-01-15T03:11:43;7.27;;;5.90;;
13309;SDS011;6723;48.256;16.402;2023-01-15T03:14:20;7.47;;;5.10;;
13309;SDS011;6723;48.256;16.402;2023-01-15T03:16:58;7.67;;;5.40;;
13309;SDS011;6723;48.256;16.402;2023-01-15T03:22:29;6.00;;;4.57;;
13309;SDS011;6723;48.256;16.402;2023-01-15T03:25:03;6.03;;;5.03;;
13309;SDS011;6723;48.256;16.402;2023-01-15T03:27:35;7.40;;;5.27;;
13309;SDS011;6723;48.256;16.402;2023-01-15T03:30:03;6.60;;;5.10;;
13309;SDS011;6723;48.256;16.402;2023-01-15T03:32:37;5.57;;;4.70;;
13309;SDS011;6723;48.256;16.402;2023-01-15T03:35:04;7.73;;;4.80;;
13309;SDS011;6723;48.256;16.402;2023-01-15T03:37:32;6.73;;;4.90;;
13309;SDS011;6723;48.256;16.402;2023-01-15T03:39:58;6.80;;;5.00;;
13309;SDS011;6723;48.256;16.402;2023-01-15T03:52:45;7.27;;;4.90;;
13309;SDS011;6723;48.256;16.402;2023-01-15T03:55:20;6.00;;;4.63;;
13309;SDS011;6723;48.256;16.402;2023-01-15T03:58:10;5.40;;;4.30;;
13309;SDS011;6723;48.256;16.402;2023-01-15T04:00:48;6.20;;;4.87;;
13309;SDS011;6723;48.256;16.402;2023-01-15T04:03:16;5.67;;;4.40;;
13309;SDS011;6723;48.256;16.402;2023-01-15T04:05:45;7.00;;;4.67;;
13309;SDS011;6723;48.256;16.402;2023-01-15T04:08:12;7.07;;;4.47;;
13309;SDS011;6723;48.256;16.402;2023-01-15T04:10:58;6.37;;;4.70;;
13309;SDS011;6723;48.256;16.402;2023-01-15T04:13:26;6.53;;;4.57;;
13309;SDS011;6723;48.256;16.402;2023-01-15T04:15:53;7.47;;;4.90;;
13309;SDS011;6723;48.256;16.402;2023-01-15T04:18:20;6.73;;;4.87;;
13309;SDS011;6723;48.256;16.402;2023-01-15T04:20:47;5.13;;;4.47;;
13309;SDS011;6723;48.256;16.402;2023-01-15T04:23:13;6.63;;;4.43;;
13309;SDS011;6723;48.256;16.402;2023-01-15T04:25:40;5.87;;;4.43;;
13309;SDS011;6723;48.256;16.402;2023-01-15T04:28:06;6.47;;;4.83;;
13309;SDS011;6723;48.256;16.402;2023-01-15T04:30:33;5.17;;;4.50;;
13309;SDS011;6723;48.256;16.402;2023-01-15T04:33:00;7.67;;;4.60;;
13309;SDS011;6723;48.256;16.402;2023-01-15T04:35:25;5.47;;;4.37;;
13309;SDS011;6723;48.256;16.402;2023-01-15T04:37:54;6.40;;;4.50;;
13309;SDS011;6723;48.256;16.402;2023-01-15T04:40:24;6.53;;;4.47;;
13309;SDS011;6723;48.256;16.402;2023-01-15T04:43:10;6.17;;;4.87;;
13309;SDS011;6723;48.256;16.402;2023-01-15T04:45:56;5.77;;;4.80;;
13309;SDS011;6723;48.256;16.402;2023-01-15T04:48:23;5.97;;;4.57;;
13309;SDS011;6723;48.256;16.402;2023-01-15T04:50:51;6.40;;;4.47;;
13309;SDS011;6723;48.256;16.402;2023-01-15T04:53:17;4.97;;;4.07;;
13309;SDS011;6723;48.256;16.402;2023-01-15T04:55:43;5.53;;;4.20;;
13309;SDS011;6723;48.256;16.402;2023-01-15T04:58:08;7.13;;;4.70;;
13309;SDS011;6723;48.256;16.402;2023-01-15T05:00:35;6.77;;;4.40;;
13309;SDS011;6723;48.256;16.402;2023-01-15T05:03:00;6.27;;;4.60;;
13309;SDS011;6723;48.256;16.402;2023-01-15T05:05:26;4.60;;;4.13;;
13309;SDS011;6723;48.256;16.402;2023-01-15T05:07:52;5.77;;;4.30;;
13309;SDS011;6723;48.256;16.402;2023-01-15T05:10:18;5.97;;;4.30;;
13309;SDS011;6723;48.256;16.402;2023-01-15T05:12:43;5.80;;;4.40;;
13309;SDS011;6723;48.256;16.402;2023-01-15T05:15:09;5.43;;;4.40;;
13309;SDS011;6723;48.256;16.402;2023-01-15T05:17:35;6.17;;;4.50;;
13309;SDS011;6723;48.256;16.402;2023-01-15T05:20:01;6.03;;;4.47;;
13309;SDS011;6723;48.256;16.402;2023-01-15T05:22:26;5.07;;;4.47;;
13309;SDS011;6723;48.256;16.402;2023-01-15T05:24:52;6.37;;;4.50;;
13309;SDS011;6723;48.256;16.402;2023-01-15T05:27:18;4.87;;;4.07;;
13309;SDS011;6723;48.256;16.402;2023-01-15T05:29:43;5.60;;;4.43;;
13309;SDS011;6723;48.256;16.402;2023-01-15T05:32:09;6.23;;;4.27;;
13309;SDS011;6723;48.256;16.402;2023-01-15T05:34:35;6.90;;;4.60;;
13309;SDS011;6723;48.256;16.402;2023-01-15T05:37:01;5.83;;;4.53;;
13309;SDS011;6723;48.256;16.402;2023-01-15T05:39:27;6.57;;;4.67;;
13309;SDS011;6723;48.256;16.402;2023-01-15T05:41:52;7.43;;;4.60;;
13309;SDS011;6723;48.256;16.402;2023-01-15T05:44:22;6.00;;;4.30;;
13309;SDS011;6723;48.256;16.402;2023-01-15T05:46:50;6.17;;;4.47;;
13309;SDS011;6723;48.256;16.402;2023-01-15T05:49:19;5.90;;;4.50;;
13309;SDS011;6723;48.256;16.402;2023-01-15T05:51:47;5.90;;;4.30;;
13309;SDS011;6723;48.256;16.402;2023-01-15T05:54:15;5.47;;;4.30;;
13309;SDS011;6723;48.256;16.402;2023-01-15T05:56:42;5.37;;;4.33;;
13309;SDS011;6723;48.256;16.402;2023-01-15T05:59:09;5.13;;;4.03;;
13309;SDS011;6723;48.256;16.402;2023-01-15T06:01:36;4.80;;;3.97;;
13309;SDS011;6723;48.256;16.402;2023-01-15T06:04:03;5.80;;;4.30;;
13309;SDS011;6723;48.256;16.402;2023-01-15T06:06:30;5.93;;;4.20;;
13309;SDS011;6723;48.256;16.402;2023-01-15T06:08:56;7.30;;;4.17;;
13309;SDS011;6723;48.256;16.402;2023-01-15T06:11:22;5.37;;;4.23;;
13309;SDS011;6723;48.256;16.402;2023-01-15T06:13:48;5.47;;;4.03;;
13309;SDS011;6723;48.256;16.402;2023-01-15T06:16:14;5.27;;;3.70;;
13309;SDS011;6723;48.256;16.402;2023-01-15T06:18:40;5.33;;;4.03;;
13309;SDS011;6723;48.256;16.402;2023-01-15T06:21:07;6.37;;;4.53;;
13309;SDS011;6723;48.256;16.402;2023-01-15T06:23:34;6.53;;;4.00;;
13309;SDS011;6723;48.256;16.402;2023-01-15T06:26:01;5.37;;;4.00;;
13309;SDS011;6723;48.256;16.402;2023-01-15T06:28:43;5.33;;;4.20;;
13309;SDS011;6723;48.256;16.402;2023-01-15T06:31:22;7.40;;;4.50;;
13309;SDS011;6723;48.256;16.402;2023-01-15T06:33:50;8.50;;;5.30;;
13309;SDS011;6723;48.256;16.402;2023-01-15T06:36:18;6.30;;;4.20;;
13309;SDS011;6723;48.256;16.402;2023-01-15T06:38:46;7.70;;;4.20;;
13309;SDS011;6723;48.256;16.402;2023-01-15T06:41:13;4.73;;;3.63;;
13309;SDS011;6723;48.256;16.402;2023-01-15T06:44:02;4.20;;;3.13;;
13309;SDS011;6723;48.256;16.402;2023-01-15T06:46:48;5.17;;;3.23;;
13309;SDS011;6723;48.256;16.402;2023-01-15T06:49:34;6.50;;;4.00;;
13309;SDS011;6723;48.256;16.402;2023-01-15T06:52:01;6.70;;;4.00;;
13309;SDS011;6723;48.256;16.402;2023-01-15T06:54:28;5.50;;;3.97;;
13309;SDS011;6723;48.256;16.402;2023-01-15T06:56:54;5.87;;;3.53;;
13309;SDS011;6723;48.256;16.402;2023-01-15T06:59:20;5.07;;;3.50;;
13309;SDS011;6723;48.256;16.402;2023-01-15T07:01:46;4.53;;;3.70;;
13309;SDS011;6723;48.256;16.402;2023-01-15T07:04:12;4.93;;;3.27;;
13309;SDS011;6723;48.256;16.402;2023-01-15T07:06:38;5.20;;;3.60;;
13309;SDS011;6723;48.256;16.402;2023-01-15T07:09:04;4.00;;;3.20;;
13309;SDS011;6723;48.256;16.402;2023-01-15T07:11:30;3.90;;;3.50;;
13309;SDS011;6723;48.256;16.402;2023-01-15T07:13:56;6.53;;;3.77;;
13309;SDS011;6723;48.256;16.402;2023-01-15T07:16:31;4.80;;;3.50;;
13309;SDS011;6723;48.256;16.402;2023-01-15T07:18:58;5.70;;;3.40;;
13309;SDS011;6723;48.256;16.402;2023-01-15T07:21:25;5.93;;;3.63;;
13309;SDS011;6723;48.256;16.402;2023-01-15T07:23:51;4.70;;;3.60;;
13309;SDS011;6723;48.256;16.402;2023-01-15T07:26:17;4.90;;;3.40;;
13309;SDS011;6723;48.256;16.402;2023-01-15T07:28:43;3.73;;;2.97;;
13309;SDS011;6723;48.256;16.402;2023-01-15T07:31:09;5.63;;;3.37;;
13309;SDS011;6723;48.256;16.402;2023-01-15T07:33:35;4.60;;;3.20;;
13309;SDS011;6723;48.256;16.402;2023-01-15T07:36:01;5.07;;;3.50;;
13309;SDS011;6723;48.256;16.402;2023-01-15T07:38:27;7.77;;;3.70;;
13309;SDS011;6723;48.256;16.402;2023-01-15T07:40:56;7.30;;;3.23;;
13309;SDS011;6723;48.256;16.402;2023-01-15T07:43:42;5.20;;;3.57;;
13309;SDS011;6723;48.256;16.402;2023-01-15T07:46:26;4.77;;;3.87;;
13309;SDS011;6723;48.256;16.402;2023-01-15T07:49:11;4.43;;;3.70;;
13309;SDS011;6723;48.256;16.402;2023-01-15T07:51:56;7.57;;;5.40;;
13309;SDS011;6723;48.256;16.402;2023-01-15T07:54:22;7.17;;;4.30;;
13309;SDS011;6723;48.256;16.402;2023-01-15T07:56:48;6.53;;;3.70;;
13309;SDS011;6723;48.256;16.402;2023-01-15T07:59:15;5.00;;;3.80;;
13309;SDS011;6723;48.256;16.402;2023-01-15T08:01:41;6.13;;;4.50;;
13309;SDS011;6723;48.256;16.402;2023-01-15T08:04:07;6.07;;;4.23;;
13309;SDS011;6723;48.256;16.402;2023-01-15T08:06:34;6.27;;;4.07;;
13309;SDS011;6723;48.256;16.402;2023-01-15T08:09:00;4.67;;;3.97;;
13309;SDS011;6723;48.256;16.402;2023-01-15T08:11:26;6.53;;;3.70;;
13309;SDS011;6723;48.256;16.402;2023-01-15T08:14:10;6.33;;;4.03;;
13309;SDS011;6723;48.256;16.402;2023-01-15T08:17:08;5.23;;;4.10;;
13309;SDS011;6723;48.256;16.402;2023-01-15T08:19:34;5.53;;;4.10;;
13309;SDS011;6723;48.256;16.402;2023-01-15T08:21:59;5.60;;;4.00;;
13309;SDS011;6723;48.256;16.402;2023-01-15T08:24:26;5.87;;;4.20;;
13309;SDS011;6723;48.256;16.402;2023-01-15T08:26:52;7.90;;;4.17;;
13309;SDS011;6723;48.256;16.402;2023-01-15T08:29:19;4.97;;;3.80;;
13309;SDS011;6723;48.256;16.402;2023-01-15T08:31:45;5.53;;;3.63;;
13309;SDS011;6723;48.256;16.402;2023-01-15T08:34:11;5.53;;;3.67;;
13309;SDS011;6723;48.256;16.402;2023-01-15T08:36:37;7.63;;;5.07;;
13309;SDS011;6723;48.256;16.402;2023-01-15T08:39:03;6.47;;;4.27;;
13309;SDS011;6723;48.256;16.402;2023-01-15T08:41:29;4.97;;;4.10;;
13309;SDS011;6723;48.256;16.402;2023-01-15T08:43:56;5.77;;;4.03;;
13309;SDS011;6723;48.256;16.402;2023-01-15T08:46:23;6.00;;;4.47;;
13309;SDS011;6723;48.256;16.402;2023-01-15T08:48:48;4.73;;;3.90;;
13309;SDS011;6723;48.256;16.402;2023-01-15T08:51:14;5.10;;;4.03;;
13309;SDS011;6723;48.256;16.402;2023-01-15T08:53:40;7.27;;;3.97;;
13309;SDS011;6723;48.256;16.402;2023-01-15T08:56:15;5.83;;;4.17;;
13309;SDS011;6723;48.256;16.402;2023-01-15T08:58:43;5.77;;;4.20;;
13309;SDS011;6723;48.256;16.402;2023-01-15T09:01:09;5.07;;;3.90;;
13309;SDS011;6723;48.256;16.402;2023-01-15T09:03:39;5.23;;;4.30;;
13309;SDS011;6723;48.256;16.402;2023-01-15T09:06:07;4.93;;;3.93;;
13309;SDS011;6723;48.256;16.402;2023-01-15T09:08:33;5.30;;;3.97;;
13309;SDS011;6723;48.256;16.402;2023-01-15T09:11:02;5.23;;;3.97;;
13309;SDS011;6723;48.256;16.402;2023-01-15T09:13:29;5.77;;;4.07;;
13309;SDS011;6723;48.256;16.402;2023-01-15T09:18:50;5.50;;;3.90;;
13309;SDS011;6723;48.256;16.402;2023-01-15T09:21:16;4.57;;;4.03;;
13309;SDS011;6723;48.256;16.402;2023-01-15T09:23:42;6.13;;;3.90;;
13309;SDS011;6723;48.256;16.402;2023-01-15T09:26:24;5.13;;;3.50;;
13309;SDS011;6723;48.256;16.402;2023-01-15T09:28:52;5.53;;;4.43;;
13309;SDS011;6723;48.256;16.402;2023-01-15T09:31:19;5.37;;;3.77;;
13309;SDS011;6723;48.256;16.402;2023-01-15T09:33:46;6.60;;;4.10;;
13309;SDS011;6723;48.256;16.402;2023-01-15T09:36:27;5.30;;;4.00;;
13309;SDS011;6723;48.256;16.402;2023-01-15T09:42:06;4.93;;;3.93;;
13309;SDS011;6723;48.256;16.402;2023-01-15T09:45:03;4.80;;;4.10;;
13309;SDS011;6723;48.256;16.402;2023-01-15T09:47:35;4.87;;;4.10;;
13309;SDS011;6723;48.256;16.402;2023-01-15T09:55:49;6.00;;;4.30;;
13309;SDS011;6723;48.256;16.402;2023-01-15T09:58:17;4.90;;;3.67;;
13309;SDS011;6723;48.256;16.402;2023-01-15T10:00:47;5.27;;;3.90;;
13309;SDS011;6723;48.256;16.402;2023-01-15T10:06:20;5.83;;;3.83;;
13309;SDS011;6723;48.256;16.402;2023-01-15T10:08:50;6.33;;;4.30;;
13309;SDS011;6723;48.256;16.402;2023-01-15T10:11:42;6.13;;;4.10;;
13309;SDS011;6723;48.256;16.402;2023-01-15T10:14:35;5.77;;;4.53;;
13309;SDS011;6723;48.256;16.402;2023-01-15T10:17:14;7.53;;;4.60;;
13309;SDS011;6723;48.256;16.402;2023-01-15T10:19:45;7.80;;;5.13;;
13309;SDS011;6723;48.256;16.402;2023-01-15T10:22:15;6.00;;;5.00;;
13309;SDS011;6723;48.256;16.402;2023-01-15T10:24:50;12.37;;;7.53;;
13309;SDS011;6723;48.256;16.402;2023-01-15T10:27:22;9.50;;;6.93;;
13309;SDS011;6723;48.256;16.402;2023-01-15T10:30:04;8.07;;;6.13;;
13309;SDS011;6723;48.256;16.402;2023-01-15T10:32:46;8.13;;;5.60;;
13309;SDS011;6723;48.256;16.402;2023-01-15T10:43:54;7.53;;;4.70;;
13309;SDS011;6723;48.256;16.402;2023-01-15T10:46:30;7.37;;;5.00;;
13309;SDS011;6723;48.256;16.402;2023-01-15T10:49:10;5.93;;;4.50;;
13309;SDS011;6723;48.256;16.402;2023-01-15T11:00:01;6.40;;;4.33;;
13309;SDS011;6723;48.256;16.402;2023-01-15T11:02:33;7.07;;;4.40;;
13309;SDS011;6723;48.256;16.402;2023-01-15T11:05:18;6.10;;;4.23;;
13309;SDS011;6723;48.256;16.402;2023-01-15T11:07:47;6.50;;;4.53;;
13309;SDS011;6723;48.256;16.402;2023-01-15T11:10:16;6.23;;;4.23;;
13309;SDS011;6723;48.256;16.402;2023-01-15T11:12:49;6.47;;;4.83;;
13309;SDS011;6723;48.256;16.402;2023-01-15T11:15:37;6.23;;;4.57;;
13309;SDS011;6723;48.256;16.402;2023-01-15T11:18:27;7.57;;;4.27;;
13309;SDS011;6723;48.256;16.402;2023-01-15T11:21:15;7.20;;;4.00;;
13309;SDS011;6723;48.256;16.402;2023-01-15T11:23:43;5.07;;;4.40;;
13309;SDS011;6723;48.256;16.402;2023-01-15T11:26:15;7.00;;;4.90;;
13309;SDS011;6723;48.256;16.402;2023-01-15T11:28:47;5.27;;;4.30;;
13309;SDS011;6723;48.256;16.402;2023-01-15T11:34:20;5.73;;;4.13;;
13309;SDS011;6723;48.256;16.402;2023-01-15T11:36:48;6.67;;;4.53;;
13309;SDS011;6723;48.256;16.402;2023-01-15T11:39:25;5.40;;;4.60;;
13309;SDS011;6723;48.256;16.402;2023-01-15T11:42:02;5.80;;;4.53;;
13309;SDS011;6723;48.256;16.402;2023-01-15T11:44:55;7.17;;;4.53;;
13309;SDS011;6723;48.256;16.402;2023-01-15T11:47:52;8.00;;;4.87;;
13309;SDS011;6723;48.256;16.402;2023-01-15T11:50:39;7.00;;;5.00;;
13309;SDS011;6723;48.256;16.402;2023-01-15T11:53:21;5.67;;;4.63;;
13309;SDS011;6723;48.256;16.402;2023-01-15T11:55:59;7.53;;;4.83;;
13309;SDS011;6723;48.256;16.402;2023-01-15T11:58:33;9.33;;;6.67;;
13309;SDS011;6723;48.256;16.402;2023-01-15T12:01:12;6.90;;;4.90;;
13309;SDS011;6723;48.256;16.402;2023-01-15T12:03:45;6.10;;;4.97;;
13309;SDS011;6723;48.256;16.402;2023-01-15T12:06:11;7.30;;;5.30;;
13309;SDS011;6723;48.256;16.402;2023-01-15T12:28:51;11.43;;;8.03;;
13309;SDS011;6723;48.256;16.402;2023-01-15T12:31:25;10.63;;;7.50;;
13309;SDS011;6723;48.256;16.402;2023-01-15T12:34:04;7.63;;;6.63;;
13309;SDS011;6723;48.256;16.402;2023-01-15T12:36:32;7.77;;;6.10;;
13309;SDS011;6723;48.256;16.402;2023-01-15T12:41:51;8.60;;;6.37;;
13309;SDS011;6723;48.256;16.402;2023-01-15T12:44:44;8.50;;;6.33;;
13309;SDS011;6723;48.256;16.402;2023-01-15T12:50:47;7.10;;;5.93;;
13309;SDS011;6723;48.256;16.402;2023-01-15T12:56:18;10.23;;;6.23;;
13309;SDS011;6723;48.256;16.402;2023-01-15T12:58:53;6.87;;;5.37;;
13309;SDS011;6723;48.256;16.402;2023-01-15T13:07:20;7.27;;;6.00;;
13309;SDS011;6723;48.256;16.402;2023-01-15T13:12:41;9.10;;;6.77;;
13309;SDS011;6723;48.256;16.402;2023-01-15T13:15:11;9.57;;;6.83;;
13309;SDS011;6723;48.256;16.402;2023-01-15T13:26:01;9.43;;;6.23;;
13309;SDS011;6723;48.256;16.402;2023-01-15T13:31:56;10.63;;;6.83;;
13309;SDS011;6723;48.256;16.402;2023-01-15T13:34:37;9.07;;;6.90;;
13309;SDS011;6723;48.256;16.402;2023-01-15T13:37:26;9.57;;;6.17;;
13309;SDS011;6723;48.256;16.402;2023-01-15T13:39:56;9.00;;;6.57;;
13309;SDS011;6723;48.256;16.402;2023-01-15T13:42:27;9.00;;;6.07;;
13309;SDS011;6723;48.256;16.402;2023-01-15T13:44:59;9.10;;;6.73;;
13309;SDS011;6723;48.256;16.402;2023-01-15T13:47:48;11.73;;;6.80;;
13309;SDS011;6723;48.256;16.402;2023-01-15T13:50:18;8.17;;;6.30;;
13309;SDS011;6723;48.256;16.402;2023-01-15T13:53:00;8.10;;;6.53;;
13309;SDS011;6723;48.256;16.402;2023-01-15T13:55:32;9.13;;;6.80;;
13309;SDS011;6723;48.256;16.402;2023-01-15T13:58:15;12.10;;;6.63;;
13309;SDS011;6723;48.256;16.402;2023-01-15T14:00:43;8.87;;;6.57;;
13309;SDS011;6723;48.256;16.402;2023-01-15T14:03:26;9.43;;;6.13;;
13309;SDS011;6723;48.256;16.402;2023-01-15T14:05:53;10.57;;;7.03;;
13309;SDS011;6723;48.256;16.402;2023-01-15T14:08:24;10.20;;;7.50;;
13309;SDS011;6723;48.256;16.402;2023-01-15T14:11:01;7.97;;;6.20;;
13309;SDS011;6723;48.256;16.402;2023-01-15T14:16:19;11.27;;;7.50;;
13309;SDS011;6723;48.256;16.402;2023-01-15T14:19:01;10.10;;;7.73;;
13309;SDS011;6723;48.256;16.402;2023-01-15T14:25:06;12.90;;;8.27;;
13309;SDS011;6723;48.256;16.402;2023-01-15T14:27:21;12.87;;;8.60;;
13309;SDS011;6723;48.256;16.402;2023-01-15T14:29:58;11.90;;;8.70;;
13309;SDS011;6723;48.256;16.402;2023-01-15T14:32:34;9.73;;;8.40;;
13309;SDS011;6723;48.256;16.402;2023-01-15T14:35:19;13.57;;;7.80;;
13309;SDS011;6723;48.256;16.402;2023-01-15T14:38:01;12.03;;;8.47;;
13309;SDS011;6723;48.256;16.402;2023-01-15T14:40:31;12.43;;;9.00;;
13309;SDS011;6723;48.256;16.402;2023-01-15T14:43:00;14.60;;;9.20;;
13309;SDS011;6723;48.256;16.402;2023-01-15T14:45:38;12.50;;;9.00;;
13309;SDS011;6723;48.256;16.402;2023-01-15T14:48:15;13.40;;;9.60;;
13309;SDS011;6723;48.256;16.402;2023-01-15T14:51:09;12.23;;;9.33;;
13309;SDS011;6723;48.256;16.402;2023-01-15T14:53:43;15.23;;;10.07;;
13309;SDS011;6723;48.256;16.402;2023-01-15T14:59:09;13.93;;;9.10;;
13309;SDS011;6723;48.256;16.402;2023-01-15T15:01:56;13.80;;;9.90;;
13309;SDS011;6723;48.256;16.402;2023-01-15T15:07:11;15.17;;;10.30;;
13309;SDS011;6723;48.256;16.402;2023-01-15T15:10:34;18.33;;;11.37;;
13309;SDS011;6723;48.256;16.402;2023-01-15T15:15:20;15.13;;;11.70;;
13309;SDS011;6723;48.256;16.402;2023-01-15T15:20:46;17.37;;;12.70;;
13309;SDS011;6723;48.256;16.402;2023-01-15T15:29:09;18.30;;;12.27;;
13309;SDS011;6723;48.256;16.402;2023-01-15T15:31:44;15.73;;;11.40;;
13309;SDS011;6723;48.256;16.402;2023-01-15T15:34:17;17.43;;;11.80;;
13309;SDS011;6723;48.256;16.402;2023-01-15T15:37:01;16.37;;;12.27;;
13309;SDS011;6723;48.256;16.402;2023-01-15T15:39:34;16.13;;;10.37;;
13309;SDS011;6723;48.256;16.402;2023-01-15T15:42:14;14.30;;;9.97;;
13309;SDS011;6723;48.256;16.402;2023-01-15T15:45:14;16.33;;;10.57;;
13309;SDS011;6723;48.256;16.402;2023-01-15T15:51:21;13.03;;;10.20;;
13309;SDS011;6723;48.256;16.402;2023-01-15T15:53:47;15.20;;;10.57;;
13309;SDS011;6723;48.256;16.402;2023-01-15T15:56:13;15.80;;;11.10;;
13309;SDS011;6723;48.256;16.402;2023-01-15T15:58:40;16.07;;;11.03;;
13309;SDS011;6723;48.256;16.402;2023-01-15T16:01:10;15.60;;;10.93;;
13309;SDS011;6723;48.256;16.402;2023-01-15T16:03:44;13.40;;;10.47;;
13309;SDS011;6723;48.256;16.402;2023-01-15T16:06:17;14.63;;;10.40;;
13309;SDS011;6723;48.256;16.402;2023-01-15T16:08:55;17.23;;;11.27;;
13309;SDS011;6723;48.256;16.402;2023-01-15T16:11:28;16.37;;;11.53;;
13309;SDS011;6723;48.256;16.402;2023-01-15T16:13:56;15.40;;;11.37;;
13309;SDS011;6723;48.256;16.402;2023-01-15T16:16:26;17.63;;;11.37;;
13309;SDS011;6723;48.256;16.402;2023-01-15T16:18:53;14.70;;;11.60;;
13309;SDS011;6723;48.256;16.402;2023-01-15T16:21:31;9.53;;;7.90;;
13309;SDS011;6723;48.256;16.402;2023-01-15T16:24:04;11.23;;;8.10;;
13309;SDS011;6723;48.256;16.402;2023-01-15T16:26:39;9.17;;;7.10;;
13309;SDS011;6723;48.256;16.402;2023-01-15T16:29:15;8.93;;;5.43;;
13309;SDS011;6723;48.256;16.402;2023-01-15T16:31:44;6.87;;;5.17;;
13309;SDS011;6723;48.256;16.402;2023-01-15T16:34:12;5.50;;;4.60;;
13309;SDS011;6723;48.256;16.402;2023-01-15T16:36:46;6.77;;;4.50;;
13309;SDS011;6723;48.256;16.402;2023-01-15T16:39:33;7.60;;;5.03;;
13309;SDS011;6723;48.256;16.402;2023-01-15T16:42:04;5.20;;;4.03;;
13309;SDS011;6723;48.256;16.402;2023-01-15T16:44:54;7.33;;;5.90;;
13309;SDS011;6723;48.256;16.402;2023-01-15T16:47:23;24.40;;;17.83;;
13309;SDS011;6723;48.256;16.402;2023-01-15T16:49:51;10.70;;;7.83;;
13309;SDS011;6723;48.256;16.402;2023-01-15T16:52:34;10.13;;;7.73;;
13309;SDS011;6723;48.256;16.402;2023-01-15T17:00:39;14.57;;;10.47;;
13309;SDS011;6723;48.256;16.402;2023-01-15T17:03:11;17.50;;;12.80;;
13309;SDS011;6723;48.256;16.402;2023-01-15T17:05:39;9.23;;;6.83;;
13309;SDS011;6723;48.256;16.402;2023-01-15T17:08:14;9.57;;;6.47;;
13309;SDS011;6723;48.256;16.402;2023-01-15T17:10:50;4.07;;;3.40;;
13309;SDS011;6723;48.256;16.402;2023-01-15T17:13:18;7.00;;;4.60;;
13309;SDS011;6723;48.256;16.402;2023-01-15T17:15:45;4.50;;;3.70;;
13309;SDS011;6723;48.256;16.402;2023-01-15T17:18:24;3.10;;;2.80;;
13309;SDS011;6723;48.256;16.402;2023-01-15T17:20:51;6.63;;;4.03;;
13309;SDS011;6723;48.256;16.402;2023-01-15T17:23:18;5.07;;;3.30;;
13309;SDS011;6723;48.256;16.402;2023-01-15T17:25:48;3.33;;;2.73;;
13309;SDS011;6723;48.256;16.402;2023-01-15T17:28:15;4.33;;;2.47;;
13309;SDS011;6723;48.256;16.402;2023-01-15T17:30:43;2.67;;;2.30;;
13309;SDS011;6723;48.256;16.402;2023-01-15T17:33:12;1.80;;;1.70;;
13309;SDS011;6723;48.256;16.402;2023-01-15T17:35:39;2.00;;;1.80;;
13309;SDS011;6723;48.256;16.402;2023-01-15T17:38:08;2.00;;;1.80;;